Flight Track Log - Related Links

Times and Time Zones

All times are in EDT time to prevent confusion due to time zone crossing. See the DAL2251 flight status page for this flight to view local times or setup timezone preferences in your user account.

Time Position Orientation Groundspeed Altitude Reporting Facility
EDT Latitude Longitude Course Direction KTS MPH feet Rate Location/Type
Mon 09:32:30 AM 33.6350 -84.3881 90° East 446 513 2,100  Level Atlanta Center
Mon 09:33:40 AM 33.6353 -84.2858 91° East 318 366 4,200 2,500 Climbing Atlanta Center
Mon 09:34:54 AM 33.6333 -84.1667 90° East 295 339 8,100 2,926 Climbing Atlanta TRACON
Mon 09:35:41 AM 33.6336 -84.0911 85° East 303 349 10,100 1,925 Climbing Atlanta Center
Mon 09:36:40 AM 33.6419 -83.9839 87° East 312 359 11,500 1,714 Climbing Atlanta Center
Mon 09:37:40 AM 33.6481 -83.8542 86° East 362 417 13,500 2,300 Climbing Atlanta Center
Mon 09:38:40 AM 33.6561 -83.7194 77° East 399 459 16,100 2,300 Climbing Atlanta Center
Mon 09:39:40 AM 33.6828 -83.5844 64° Northeast 409 471 18,100 2,000 Climbing Atlanta Center
Mon 09:40:40 AM 33.7364 -83.4542 64° Northeast 423 487 20,100 1,750 Climbing Atlanta Center
Mon 09:41:40 AM 33.7922 -83.3189 64° Northeast 440 506 21,600 1,500 Climbing Atlanta Center
Mon 09:42:40 AM 33.8414 -83.1958 64° Northeast 452 520 23,100 1,700 Climbing Atlanta Center
Mon 09:43:40 AM 33.8989 -83.0528 65° Northeast 463 533 25,000 1,785 Climbing Atlanta Center
Mon 09:44:41 AM 33.9519 -82.9144 64° Northeast 463 533 26,700 1,000 Climbing Atlanta Center
Mon 09:45:40 AM 34.0089 -82.7708 55° Northeast 463 533 27,000 151 Climbing Atlanta Center
Mon 09:46:40 AM 34.0828 -82.6442 54° Northeast 458 527 27,000  Level Atlanta Center
Mon 09:47:40 AM 34.1667 -82.5022 55° Northeast 458 527 27,000 -1,000 Level Atlanta Center
Mon 09:49:40 AM 34.3053 -82.2658 54° Northeast 438 504 24,000 -1,500 Descending Atlanta Center
Mon 09:50:40 AM 34.3744 -82.1486 55° Northeast 431 496 22,500 -1,800 Descending Atlanta Center
Mon 09:51:40 AM 34.4417 -82.0339 54° Northeast 426 490 20,400 -2,050 Descending Atlanta Center
Mon 09:52:40 AM 34.5064 -81.9239 53° Northeast 420 483 18,400 -1,950 Descending Atlanta Center
Mon 09:53:40 AM 34.5694 -81.8214 53° Northeast 398 458 16,500 -1,964 Descending Atlanta Center
Mon 09:54:30 AM 34.6242 -81.7342 56° Northeast 381 438 14,800 -1,900 Descending Atlanta Center
Mon 09:55:40 AM 34.6886 -81.6161 52° Northeast 365 420 12,700 -1,366 Descending Atlanta Center
Mon 09:56:33 AM 34.7372 -81.5414 48° Northeast 338 389 12,000 -372 Descending Atlanta Center
Mon 09:57:33 AM 34.7981 -81.4586 45° Northeast 313 360 12,000 -595 Level Atlanta Center
Mon 09:58:34 AM 34.8611 -81.3808 48° Northeast 313 360 10,800 -1,268 Descending Atlanta Center
Mon 09:59:36 AM 34.9178 -81.3031 45° Northeast 308 354 9,400 -857 Descending Atlanta Center
Mon 10:00:40 AM 34.9789 -81.2275 46° Northeast 299 344 9,000 -197 Descending Atlanta Center
Mon 10:01:38 AM 35.0294 -81.1625 49° Northeast 294 338 9,000  Level Atlanta Center
Mon 10:02:14 AM 35.0650 -81.1131 43° Northeast 293 337 9,000  Level FAA TRACON SMA TRACON (SMA)
Mon 10:02:53 AM 35.1064 -81.0667 North 293 337 9,000  Level FAA TRACON SMA TRACON (SMA)
Mon 10:03:33 AM 35.1503 -81.0639 357° North 251 289 9,000 -519 Level FAA TRACON SMA TRACON (SMA)
Mon 10:04:14 AM 35.1958 -81.0667 356° North 238 274 8,300 -1,556 Descending FAA TRACON SMA TRACON (SMA)
Mon 10:04:54 AM 35.2406 -81.0703 356° North 230 265 6,900 -2,051 Descending FAA TRACON SMA TRACON (SMA)
Mon 10:05:33 AM 35.2758 -81.0733 356° North 231 266 5,600 -2,100 Descending FAA TRACON SMA TRACON (SMA)
Mon 10:06:14 AM 35.3214 -81.0769 355° North 234 269 4,100 -1,200 Descending FAA TRACON SMA TRACON (SMA)
Mon 10:06:53 AM 35.3669 -81.0814 356° North 234 269 4,000 -76 Descending FAA TRACON SMA TRACON (SMA)
Mon 10:07:33 AM 35.4017 -81.0847 North 207 238 4,000  Level FAA TRACON SMA TRACON (SMA)
Mon 10:08:14 AM 35.4375 -81.0781 76° East 198 228 4,000  Level FAA TRACON SMA TRACON (SMA)
Mon 10:08:53 AM 35.4464 -81.0336 98° East 193 222 4,000  Level FAA TRACON SMA TRACON (SMA)
Mon 10:09:35 AM 35.4419 -80.9967 163° South 183 211 4,000 -293 Level FAA TRACON SMA TRACON (SMA)
Mon 10:10:15 AM 35.4072 -80.9833 182° South 178 205 3,600 -583 Descending FAA TRACON SMA TRACON (SMA)
Mon 10:10:47 AM 35.3819 -80.9844 172° South 176 203 3,300 -450 Descending Atlanta Center
Mon 10:11:35 AM 35.3444 -80.9778 176° South 172 198 3,000 -545 Descending FAA TRACON SMA TRACON (SMA)
Mon 10:12:15 AM 35.3114 -80.9747 176° South 170 196 2,500 -900 Descending FAA TRACON SMA TRACON (SMA)
Mon 10:12:55 AM 35.2803 -80.9719 176° South 166 191 1,800 -825 Descending FAA TRACON SMA TRACON (SMA)
Mon 10:13:35 AM 35.2561 -80.9700 176° South 149 171 1,400 -684 Descending FAA TRACON SMA TRACON (SMA)
Mon 10:14:14 AM 35.2317 -80.9681 176° South 143 165 900 -769 Descending FAA TRACON SMA TRACON (SMA)

Login

Don't have an account? Register now (free) for customized features, flight alerts, and more!